createdAt,value
2022-10-08T00:01:07.900Z,96258.13
2022-10-08T00:03:37.951Z,96244.41
2022-10-08T00:06:06.788Z,96248.16
2022-10-08T00:08:39.559Z,96246.53
2022-10-08T00:11:09.263Z,96238.66
2022-10-08T00:13:43.605Z,96230.25
2022-10-08T00:16:13.614Z,96238.50
2022-10-08T00:18:41.362Z,96228.78
2022-10-08T00:21:14.341Z,96232.88
2022-10-08T00:23:42.059Z,96234.16
2022-10-08T00:26:10.866Z,96234.81
2022-10-08T00:28:41.683Z,96236.25
2022-10-08T00:31:11.398Z,96232.63
2022-10-08T00:33:38.566Z,96236.06
2022-10-08T00:36:07.765Z,96226.84
2022-10-08T00:38:35.306Z,96232.09
2022-10-08T00:41:05.580Z,96215.50
2022-10-08T00:43:39.435Z,96220.75
2022-10-08T00:46:10.942Z,96207.63
2022-10-08T00:48:37.799Z,96209.09
2022-10-08T00:51:05.550Z,96202.22
2022-10-08T00:53:32.266Z,96207.09
2022-10-08T00:55:58.987Z,96202.47
2022-10-08T00:58:27.606Z,96192.16
2022-10-08T01:00:54.885Z,96199.66
2022-10-08T01:03:21.801Z,96195.88
2022-10-08T01:06:06.005Z,96188.00
2022-10-08T01:08:41.762Z,96188.44
2022-10-08T01:11:26.090Z,96187.81
2022-10-08T01:13:58.880Z,96190.09
2022-10-08T01:16:33.136Z,96179.38
2022-10-08T01:19:18.627Z,96184.63
2022-10-08T01:22:14.541Z,96177.75
2022-10-08T01:25:11.975Z,96176.56
2022-10-08T01:27:43.448Z,96169.53
2022-10-08T01:30:16.539Z,96163.28
2022-10-08T01:32:57.716Z,96159.47
2022-10-08T01:35:30.015Z,96157.47
2022-10-08T01:38:01.039Z,96154.47
2022-10-08T01:40:37.903Z,96154.66
2022-10-08T01:43:08.580Z,96150.19
2022-10-08T01:45:42.268Z,96151.69
2022-10-08T01:48:15.013Z,96148.84
2022-10-08T01:51:04.223Z,96146.41
2022-10-08T01:53:37.613Z,96152.47
2022-10-08T01:56:08.815Z,96146.03
2022-10-08T01:58:55.883Z,96152.47
2022-10-08T02:02:01.513Z,96148.84
2022-10-08T02:04:34.193Z,96151.28
2022-10-08T02:07:08.408Z,96156.38
2022-10-08T02:09:42.038Z,96146.47
2022-10-08T02:12:10.161Z,96146.47
2022-10-08T02:14:42.241Z,96137.44
2022-10-08T02:17:14.934Z,96140.06
2022-10-08T02:19:44.278Z,96139.44
2022-10-08T02:22:13.724Z,96142.06
2022-10-08T02:24:46.086Z,96137.59
2022-10-08T02:27:14.666Z,96135.59
2022-10-08T02:29:46.138Z,96139.69
2022-10-08T02:32:22.255Z,96140.31
2022-10-08T02:35:07.503Z,96142.94
2022-10-08T02:37:42.983Z,96131.44
2022-10-08T02:40:13.299Z,96145.22
2022-10-08T02:42:48.533Z,96143.59
2022-10-08T02:45:46.597Z,96144.56
2022-10-08T02:48:22.863Z,96148.41
2022-10-08T02:50:53.475Z,96151.38
2022-10-08T02:53:41.156Z,96144.47
2022-10-08T02:56:53.184Z,96135.16
2022-10-08T03:00:09.145Z,96131.34
2022-10-08T03:02:58.398Z,96137.59
2022-10-08T03:05:26.443Z,96139.44
2022-10-08T03:07:56.191Z,96141.41
2022-10-08T03:10:26.148Z,96139.78
2022-10-08T03:13:02.836Z,96138.97
2022-10-08T03:15:37.360Z,96154.09
2022-10-08T03:18:09.025Z,96147.84
2022-10-08T03:20:46.362Z,96158.56
2022-10-08T03:23:26.445Z,96160.34
2022-10-08T03:25:56.235Z,96151.47
2022-10-08T03:28:24.892Z,96156.53
2022-10-08T03:49:14.182Z,96164.16
2022-10-08T03:52:07.513Z,96163.97
2022-10-08T03:55:58.326Z,96182.00
2022-10-08T03:58:52.306Z,96178.41
2022-10-08T04:01:30.072Z,96173.78
2022-10-08T04:03:57.005Z,96174.22
2022-10-08T04:06:24.374Z,96173.84
2022-10-08T04:08:51.137Z,96176.47
2022-10-08T04:11:18.344Z,96176.47
2022-10-08T04:13:45.242Z,96169.41
2022-10-08T04:16:14.887Z,96166.41
2022-10-08T04:18:42.348Z,96174.47
2022-10-08T04:21:11.767Z,96164.97
2022-10-08T04:23:40.469Z,96158.50
2022-10-08T04:26:08.622Z,96166.41
2022-10-08T04:28:38.835Z,96163.63
2022-10-08T04:31:12.563Z,96165.59
2022-10-08T04:33:39.451Z,96167.78
2022-10-08T04:36:11.276Z,96163.53
2022-10-08T04:38:38.102Z,96169.41
2022-10-08T04:41:07.526Z,96163.31
2022-10-08T04:43:36.070Z,96167.59
2022-10-08T04:46:04.630Z,96173.69
2022-10-08T04:48:31.976Z,96178.09
2022-10-08T04:51:08.094Z,96176.47
2022-10-08T04:53:37.029Z,96178.75
2022-10-08T04:56:17.880Z,96182.00
2022-10-08T04:58:45.280Z,96179.38
2022-10-08T05:01:14.130Z,96185.09
2022-10-08T05:03:47.701Z,96182.25
2022-10-08T05:06:16.702Z,96175.38
2022-10-08T05:08:44.545Z,96179.81
2022-10-08T05:11:12.087Z,96189.34
2022-10-08T05:13:39.003Z,96188.50
2022-10-08T05:16:11.222Z,96188.50
2022-10-08T05:18:42.259Z,96195.41
2022-10-08T05:21:14.419Z,96202.47
2022-10-08T05:23:42.935Z,96196.41
2022-10-08T05:26:12.768Z,96191.34
2022-10-08T05:28:39.601Z,96194.16
2022-10-08T05:31:06.471Z,96199.22
2022-10-08T05:33:36.013Z,96207.47
2022-10-08T05:36:08.217Z,96203.38
2022-10-08T05:38:35.732Z,96207.19
2022-10-08T05:41:15.324Z,96205.38
2022-10-08T05:43:45.218Z,96201.09
2022-10-08T05:46:12.475Z,96204.75
2022-10-08T05:48:39.944Z,96200.13
2022-10-08T05:51:12.354Z,96205.56
2022-10-08T05:53:41.187Z,96206.22
2022-10-08T05:56:10.597Z,96214.53
2022-10-08T05:58:39.587Z,96215.34
2022-10-08T06:01:13.656Z,96219.16
2022-10-08T06:03:40.926Z,96224.59
2022-10-08T06:06:10.207Z,96222.50
2022-10-08T06:08:38.177Z,96233.03
2022-10-08T06:11:06.983Z,96239.28
2022-10-08T06:13:35.923Z,96248.78
2022-10-08T06:16:05.623Z,96240.72
2022-10-08T06:18:34.780Z,96235.47
2022-10-08T06:21:03.728Z,96236.28
2022-10-08T06:23:30.909Z,96243.53
2022-10-08T06:26:02.799Z,96241.72
2022-10-08T06:28:29.621Z,96241.91
2022-10-08T06:30:56.428Z,96243.91
2022-10-08T06:33:23.272Z,96252.97
2022-10-08T06:35:49.967Z,96248.50
2022-10-08T06:38:16.772Z,96244.88
2022-10-08T06:40:49.013Z,96250.34
2022-10-08T06:43:18.169Z,96248.34
2022-10-08T06:45:46.706Z,96256.03
2022-10-08T06:48:14.043Z,96255.03
2022-10-08T06:50:41.290Z,96254.50
2022-10-08T06:53:10.260Z,96255.94
2022-10-08T06:55:37.595Z,96262.84
2022-10-08T06:58:05.408Z,96253.66
2022-10-08T07:00:32.474Z,96254.41
2022-10-08T07:02:59.241Z,96254.41
2022-10-08T07:05:25.939Z,96262.47
2022-10-08T07:07:52.663Z,96263.56
2022-10-08T07:10:19.688Z,96264.19
2022-10-08T07:12:46.686Z,96262.19
2022-10-08T07:15:13.692Z,96260.66
2022-10-08T07:17:40.427Z,96266.09
2022-10-08T07:20:07.699Z,96265.38
2022-10-08T07:22:34.462Z,96264.03
2022-10-08T07:25:01.700Z,96265.56
2022-10-08T07:27:28.536Z,96271.53
2022-10-08T07:29:55.280Z,96271.16
2022-10-08T07:32:21.995Z,96273.25
2022-10-08T07:34:48.718Z,96277.31
2022-10-08T07:37:15.417Z,96274.81
2022-10-08T07:39:42.120Z,96277.25
2022-10-08T07:42:08.835Z,96271.81
2022-10-08T07:44:35.703Z,96279.53
2022-10-08T07:47:02.420Z,96274.94
2022-10-08T07:49:29.146Z,96279.75
2022-10-08T07:51:56.119Z,96268.56
2022-10-08T07:54:23.611Z,96256.00
2022-10-08T07:56:50.681Z,96256.47
2022-10-08T07:59:17.515Z,96246.03
2022-10-08T08:01:44.594Z,96250.19
2022-10-08T08:04:11.788Z,96263.88
2022-10-08T08:06:44.710Z,96270.78
2022-10-08T08:09:12.033Z,96260.69
2022-10-08T08:11:40.319Z,96275.75
2022-10-08T08:14:08.136Z,96264.69
2022-10-08T08:16:35.883Z,96275.66
2022-10-08T08:19:03.262Z,96276.72
2022-10-08T08:21:35.496Z,96278.50
2022-10-08T08:24:07.932Z,96279.16
2022-10-08T08:26:36.875Z,96279.81
2022-10-08T08:29:07.087Z,96279.00
2022-10-08T08:31:36.734Z,96295.53
2022-10-08T08:34:07.401Z,96292.00
2022-10-08T08:36:40.187Z,96286.56
2022-10-08T08:39:09.442Z,96280.69
2022-10-08T08:41:43.587Z,96296.19
2022-10-08T08:44:33.283Z,96292.25
2022-10-08T08:47:29.711Z,96296.44
2022-10-08T08:50:59.098Z,96298.38
2022-10-08T08:53:28.745Z,96289.63
2022-10-08T08:55:58.981Z,96296.44
2022-10-08T08:59:00.223Z,96289.06
2022-10-08T09:01:32.575Z,96302.66
2022-10-08T09:04:07.561Z,96315.66
2022-10-08T09:06:36.239Z,96317.72
2022-10-08T09:09:06.938Z,96317.53
2022-10-08T09:11:33.903Z,96321.53
2022-10-08T09:14:08.200Z,96320.91
2022-10-08T09:16:36.184Z,96319.88
2022-10-08T09:19:02.954Z,96328.53
2022-10-08T09:21:31.709Z,96329.38
2022-10-08T09:23:58.482Z,96321.91
2022-10-08T09:26:26.927Z,96321.91
2022-10-08T09:28:56.500Z,96315.25
2022-10-08T09:31:45.264Z,96324.31
2022-10-08T09:34:15.821Z,96327.28
2022-10-08T09:37:13.080Z,96326.91
2022-10-08T09:39:39.794Z,96329.09
2022-10-08T09:42:17.669Z,96327.28
2022-10-08T09:45:03.913Z,96332.22
2022-10-08T09:47:31.072Z,96332.69
2022-10-08T09:50:16.657Z,96330.16
2022-10-08T09:52:43.447Z,96331.81
2022-10-08T09:55:20.156Z,96334.63
2022-10-08T09:57:54.105Z,96335.50
2022-10-08T10:00:26.789Z,96339.22
2022-10-08T10:02:55.756Z,96340.47
2022-10-08T10:05:26.993Z,96337.59
2022-10-08T10:07:54.396Z,96342.56
2022-10-08T10:10:33.059Z,96353.06
2022-10-08T10:13:22.125Z,96349.47
2022-10-08T10:16:04.304Z,96354.91
2022-10-08T10:18:49.384Z,96348.34
2022-10-08T10:21:23.214Z,96355.63
2022-10-08T10:24:14.858Z,96340.25
2022-10-08T10:26:44.221Z,96349.75
2022-10-08T10:29:17.386Z,96349.03
2022-10-08T10:32:00.304Z,96348.59
2022-10-08T10:34:33.910Z,96347.44
2022-10-08T10:37:14.716Z,96339.38
2022-10-08T10:40:22.583Z,96345.28
2022-10-08T10:42:56.368Z,96348.44
2022-10-08T10:45:27.892Z,96343.09
2022-10-08T10:47:54.910Z,96339.84
2022-10-08T10:50:34.293Z,96341.09
2022-10-08T10:53:20.348Z,96334.03
2022-10-08T10:55:58.308Z,96339.56
2022-10-08T10:58:43.566Z,96336.53
2022-10-08T11:01:27.482Z,96335.94
2022-10-08T11:04:00.105Z,96327.53
2022-10-08T11:06:45.088Z,96339.44
2022-10-08T11:09:50.273Z,96332.19
2022-10-08T11:12:33.086Z,96332.31
2022-10-08T11:15:18.751Z,96331.69
2022-10-08T11:18:03.267Z,96329.06
2022-10-08T11:20:55.771Z,96329.53
2022-10-08T11:23:31.774Z,96341.22
2022-10-08T11:26:20.794Z,96338.19
2022-10-08T11:29:19.587Z,96340.03
2022-10-08T11:31:48.781Z,96340.22
2022-10-08T11:34:30.481Z,96335.34
2022-10-08T11:37:09.216Z,96331.69
2022-10-08T11:40:06.750Z,96332.50
2022-10-08T11:42:49.928Z,96335.34
2022-10-08T11:45:28.837Z,96335.28
2022-10-08T11:47:58.575Z,96330.75
2022-10-08T11:50:29.221Z,96338.03
2022-10-08T11:53:18.896Z,96321.00
2022-10-08T11:55:56.509Z,96326.97
2022-10-08T11:58:30.535Z,96324.72
2022-10-08T12:01:05.279Z,96314.78
2022-10-08T12:03:35.261Z,96314.03
2022-10-08T12:06:14.448Z,96319.88
2022-10-08T12:08:53.250Z,96318.69
2022-10-08T12:11:32.220Z,96331.47
2022-10-08T12:14:11.291Z,96331.97
2022-10-08T12:16:47.337Z,96334.69
2022-10-08T12:19:32.749Z,96338.88
2022-10-08T12:22:25.312Z,96328.13
2022-10-08T12:24:57.172Z,96328.16
2022-10-08T12:27:29.547Z,96324.56
2022-10-08T12:29:58.190Z,96327.59
2022-10-08T12:32:27.526Z,96330.25
2022-10-08T12:34:54.732Z,96325.16
2022-10-08T12:37:54.177Z,96318.00
2022-10-08T12:40:37.856Z,96323.34
2022-10-08T12:43:43.085Z,96320.47
2022-10-08T12:46:29.645Z,96324.75
2022-10-08T12:48:59.272Z,96328.84
2022-10-08T12:51:40.287Z,96337.16
2022-10-08T12:54:18.767Z,96334.09
2022-10-08T12:56:45.792Z,96333.22
2022-10-08T12:59:12.921Z,96340.84
2022-10-08T13:01:42.855Z,96335.50
2022-10-08T13:04:18.895Z,96341.75
2022-10-08T13:06:46.975Z,96344.59
2022-10-08T13:09:35.865Z,96341.53
2022-10-08T13:12:05.853Z,96357.75
2022-10-08T13:14:35.088Z,96353.84
2022-10-08T13:17:02.392Z,96356.94
2022-10-08T13:19:36.042Z,96365.28
2022-10-08T13:22:02.854Z,96365.16
2022-10-08T13:24:32.388Z,96362.63
2022-10-08T13:26:59.266Z,96361.63
2022-10-08T13:29:35.090Z,96361.84
2022-10-08T13:32:14.223Z,96363.47
2022-10-08T13:34:41.419Z,96368.31
2022-10-08T13:37:14.282Z,96358.13
2022-10-08T13:39:49.429Z,96364.03
2022-10-08T13:42:18.939Z,96364.06
2022-10-08T13:44:46.081Z,96368.59
2022-10-08T13:47:15.948Z,96373.88
2022-10-08T13:49:43.641Z,96369.97
2022-10-08T13:52:30.633Z,96380.84
2022-10-08T13:55:15.791Z,96383.81
2022-10-08T13:57:42.487Z,96382.50
2022-10-08T14:00:14.178Z,96387.28
2022-10-08T14:02:40.973Z,96385.28
2022-10-08T14:05:07.893Z,96399.69
2022-10-08T14:07:35.908Z,96398.66
2022-10-08T14:10:04.775Z,96407.22
2022-10-08T14:12:33.912Z,96404.09
2022-10-08T14:15:01.042Z,96407.00
2022-10-08T14:17:27.765Z,96414.09
2022-10-08T14:19:55.619Z,96406.47
2022-10-08T14:22:22.688Z,96415.59
2022-10-08T14:24:49.431Z,96416.19
2022-10-08T14:27:16.407Z,96423.19
2022-10-08T14:29:43.261Z,96425.00
2022-10-08T14:32:11.630Z,96429.63
2022-10-08T14:34:39.164Z,96430.38
2022-10-08T14:37:06.828Z,96426.38
2022-10-08T14:39:33.739Z,96431.47
2022-10-08T14:42:00.497Z,96431.53
2022-10-08T14:44:27.223Z,96439.44
2022-10-08T14:46:53.967Z,96435.28
2022-10-08T14:49:21.066Z,96441.91
2022-10-08T14:51:48.090Z,96432.09
2022-10-08T14:54:14.844Z,96437.38
2022-10-08T14:56:42.924Z,96448.03
2022-10-08T14:59:10.864Z,96454.50
2022-10-08T15:01:37.660Z,96459.59
2022-10-08T15:04:05.468Z,96450.66
2022-10-08T15:06:32.904Z,96457.59
2022-10-08T15:08:59.868Z,96468.16
2022-10-08T15:11:26.650Z,96463.06
2022-10-08T15:13:54.026Z,96474.06
2022-10-08T15:16:21.208Z,96471.19
2022-10-08T15:18:48.342Z,96477.47
2022-10-08T15:21:15.191Z,96485.03
2022-10-08T15:23:41.929Z,96488.31
2022-10-08T15:26:12.779Z,96484.75
2022-10-08T15:28:39.964Z,96491.34
2022-10-08T15:31:10.201Z,96492.81
2022-10-08T15:33:41.738Z,96487.44
2022-10-08T15:36:28.589Z,96492.53
2022-10-08T15:38:56.800Z,96491.03
2022-10-08T15:41:23.754Z,96499.53
2022-10-08T15:43:50.775Z,96498.25
2022-10-08T15:46:18.965Z,96499.72
2022-10-08T15:48:54.527Z,96508.28
2022-10-08T15:51:22.796Z,96505.78
2022-10-08T15:53:50.281Z,96512.06
2022-10-08T15:56:17.512Z,96517.31
2022-10-08T15:58:51.941Z,96516.50
2022-10-08T16:01:21.922Z,96514.69
2022-10-08T16:03:50.404Z,96517.00
2022-10-08T16:06:23.219Z,96514.38
2022-10-08T16:08:50.379Z,96512.09
2022-10-08T16:11:22.326Z,96528.50
2022-10-08T16:13:54.288Z,96535.19
2022-10-08T16:16:21.538Z,96537.69
2022-10-08T16:18:52.877Z,96534.03
2022-10-08T16:21:21.279Z,96543.25
2022-10-08T16:23:48.441Z,96545.22
2022-10-08T16:26:22.395Z,96549.13
2022-10-08T16:28:51.417Z,96549.63
2022-10-08T16:31:19.079Z,96556.19
2022-10-08T16:33:46.576Z,96551.63
2022-10-08T16:36:14.823Z,96566.84
2022-10-08T16:38:41.718Z,96576.88
2022-10-08T16:41:19.722Z,96576.50
2022-10-08T16:43:49.390Z,96579.47
2022-10-08T16:46:31.560Z,96587.34
2022-10-08T16:49:00.560Z,96580.28
2022-10-08T16:51:29.795Z,96575.53
2022-10-08T16:53:59.643Z,96583.91
2022-10-08T16:56:32.913Z,96584.56
2022-10-08T16:59:03.575Z,96592.06
2022-10-08T17:01:30.428Z,96594.16
2022-10-08T17:03:57.198Z,96604.47
2022-10-08T17:06:25.587Z,96604.31
2022-10-08T17:08:52.729Z,96602.00
2022-10-08T17:11:20.774Z,96618.22
2022-10-08T17:13:50.701Z,96607.47
2022-10-08T17:16:19.026Z,96615.91
2022-10-08T17:18:46.263Z,96612.97
2022-10-08T17:21:14.497Z,96625.69
2022-10-08T17:23:41.300Z,96618.97
2022-10-08T17:26:12.706Z,96634.56
2022-10-08T17:28:42.304Z,96631.75
2022-10-08T17:31:12.604Z,96634.16
2022-10-08T17:33:39.325Z,96635.63
2022-10-08T17:36:08.771Z,96638.69
2022-10-08T17:38:36.602Z,96647.06
2022-10-08T17:41:21.012Z,96649.00
2022-10-08T17:43:48.830Z,96651.31
2022-10-08T17:46:22.381Z,96651.16
2022-10-08T17:48:49.471Z,96656.09
2022-10-08T17:51:18.577Z,96653.13
2022-10-08T17:53:50.868Z,96655.56
2022-10-08T17:56:17.527Z,96663.47
2022-10-08T17:58:44.276Z,96665.69
2022-10-08T18:01:19.286Z,96670.31
2022-10-08T18:03:57.004Z,96670.97
2022-10-08T18:06:27.997Z,96688.78
2022-10-08T18:08:58.474Z,96685.97
2022-10-08T18:11:26.803Z,96687.59
2022-10-08T18:13:54.202Z,96687.59
2022-10-08T18:16:21.846Z,96690.97
2022-10-08T18:18:48.944Z,96688.63
2022-10-08T18:21:17.681Z,96693.31
2022-10-08T18:23:46.698Z,96696.28
2022-10-08T18:26:25.450Z,96698.78
2022-10-08T18:28:54.787Z,96711.28
2022-10-08T18:31:23.373Z,96717.38
2022-10-08T18:33:54.544Z,96710.69
2022-10-08T18:36:24.135Z,96716.28
2022-10-08T18:38:57.951Z,96709.09
2022-10-08T18:41:38.091Z,96709.88
2022-10-08T18:44:06.485Z,96718.19
2022-10-08T18:46:35.503Z,96719.63
2022-10-08T18:49:03.025Z,96722.25
2022-10-08T18:51:31.055Z,96732.38
2022-10-08T18:53:59.572Z,96739.13
2022-10-08T18:56:29.113Z,96734.03
2022-10-08T18:59:01.814Z,96741.59
2022-10-08T19:01:31.278Z,96745.84
2022-10-08T19:04:00.230Z,96744.56
2022-10-08T19:06:30.326Z,96745.84
2022-10-08T19:08:58.668Z,96749.75
2022-10-08T19:11:30.218Z,96759.53
2022-10-08T19:13:56.921Z,96760.38
2022-10-08T19:16:23.761Z,96766.13
2022-10-08T19:18:54.982Z,96753.84
2022-10-08T19:21:23.279Z,96765.94
2022-10-08T19:23:50.569Z,96772.03
2022-10-08T19:26:17.466Z,96770.22
2022-10-08T19:28:52.135Z,96774.31
2022-10-08T19:31:25.383Z,96775.31
2022-10-08T19:33:54.879Z,96771.06
2022-10-08T19:36:23.214Z,96784.72
2022-10-08T19:38:54.357Z,96783.53
2022-10-08T19:41:22.046Z,96785.97
2022-10-08T19:43:48.955Z,96789.66
2022-10-08T19:46:15.715Z,96792.97
2022-10-08T19:48:42.691Z,96797.38
2022-10-08T19:51:11.479Z,96797.53
2022-10-08T19:53:39.147Z,96797.84
2022-10-08T19:56:08.599Z,96803.38
2022-10-08T19:58:36.405Z,96795.00
2022-10-08T20:01:06.031Z,96796.13
2022-10-08T20:03:33.713Z,96811.81
2022-10-08T20:06:07.779Z,96817.06
2022-10-08T20:08:35.540Z,96819.94
2022-10-08T20:11:07.082Z,96814.03
2022-10-08T20:13:34.786Z,96823.69
2022-10-08T20:16:09.843Z,96827.28
2022-10-08T20:18:36.955Z,96832.34
2022-10-08T20:21:04.852Z,96835.94
2022-10-08T20:23:32.095Z,96829.22
2022-10-08T20:26:09.946Z,96830.84
2022-10-08T20:28:37.206Z,96842.97
2022-10-08T20:31:15.739Z,96832.00
2022-10-08T20:33:44.074Z,96835.19
2022-10-08T20:36:13.472Z,96842.66
2022-10-08T20:38:41.109Z,96846.09
2022-10-08T20:41:08.540Z,96847.75
2022-10-08T20:43:36.991Z,96842.53
2022-10-08T20:46:06.016Z,96851.63
2022-10-08T20:48:34.295Z,96857.53
2022-10-08T20:51:06.460Z,96858.22
2022-10-08T20:53:33.931Z,96861.63
2022-10-08T20:56:09.318Z,96863.56
2022-10-08T20:58:36.479Z,96861.28
2022-10-08T21:01:04.565Z,96862.06
2022-10-08T21:03:31.417Z,96852.84
2022-10-08T21:06:00.375Z,96862.94
2022-10-08T21:08:27.199Z,96872.00
2022-10-08T21:10:54.068Z,96876.19
2022-10-08T21:13:20.826Z,96864.50
2022-10-08T21:15:47.561Z,96869.91
2022-10-08T21:18:14.315Z,96871.97
2022-10-08T21:20:40.975Z,96879.19
2022-10-08T21:23:07.699Z,96884.88
2022-10-08T21:25:35.112Z,96884.38
2022-10-08T21:28:01.914Z,96890.44
2022-10-08T21:30:28.649Z,96888.94
2022-10-08T21:32:55.393Z,96894.00
2022-10-08T21:35:22.085Z,96897.84
2022-10-08T21:37:48.796Z,96893.31
2022-10-08T21:40:15.615Z,96896.78
2022-10-08T21:42:42.346Z,96895.94
2022-10-08T21:45:09.531Z,96899.81
2022-10-08T21:47:36.249Z,96903.38
2022-10-08T21:50:03.084Z,96898.16
2022-10-08T21:52:30.015Z,96892.25
2022-10-08T21:54:56.674Z,96893.22
2022-10-08T21:57:23.454Z,96896.78
2022-10-08T21:59:50.138Z,96894.31
2022-10-08T22:02:16.859Z,96903.94
2022-10-08T22:04:44.129Z,96895.44
2022-10-08T22:07:11.182Z,96906.16
2022-10-08T22:09:37.937Z,96904.34
2022-10-08T22:12:05.164Z,96899.28
2022-10-08T22:14:32.007Z,96912.31
2022-10-08T22:16:58.711Z,96902.16
2022-10-08T22:19:28.604Z,96901.22
2022-10-08T22:21:55.437Z,96908.63
2022-10-08T22:24:22.311Z,96910.03
2022-10-08T22:26:49.720Z,96919.22
2022-10-08T22:29:17.071Z,96915.53
2022-10-08T22:31:44.362Z,96914.94
2022-10-08T22:34:11.379Z,96919.22
2022-10-08T22:36:41.907Z,96924.69
2022-10-08T22:39:09.061Z,96921.13
2022-10-08T22:41:36.821Z,96923.34
2022-10-08T22:44:03.855Z,96931.84
2022-10-08T22:46:34.640Z,96928.84
2022-10-08T22:49:09.552Z,96932.56
2022-10-08T22:51:36.605Z,96932.25
2022-10-08T22:54:03.517Z,96935.16
2022-10-08T22:56:31.336Z,96927.59
2022-10-08T22:58:59.676Z,96937.91
2022-10-08T23:01:29.154Z,96931.16
2022-10-08T23:03:56.671Z,96930.63
2022-10-08T23:06:26.521Z,96926.22
2022-10-08T23:08:55.938Z,96932.25
2022-10-08T23:11:22.764Z,96936.53
2022-10-08T23:13:51.226Z,96928.53
2022-10-08T23:16:18.431Z,96937.91
2022-10-08T23:18:47.339Z,96935.16
2022-10-08T23:21:16.423Z,96937.63
2022-10-08T23:23:44.996Z,96943.78
2022-10-08T23:26:12.580Z,96939.69
2022-10-08T23:28:40.465Z,96939.13
2022-10-08T23:31:16.008Z,96945.16
2022-10-08T23:33:45.373Z,96947.22
2022-10-08T23:36:18.425Z,96945.47
2022-10-08T23:38:45.195Z,96944.63
2022-10-08T23:41:12.577Z,96947.91
2022-10-08T23:43:44.720Z,96944.34
2022-10-08T23:46:15.570Z,96952.19
2022-10-08T23:48:42.933Z,96951.22
2022-10-08T23:51:11.362Z,96945.16
2022-10-08T23:53:39.065Z,96946.94
2022-10-08T23:56:06.936Z,96947.31
2022-10-08T23:58:33.871Z,96949.38
